Time;durP1;ratioP1;P1;durP2;ratioP2;P2;SDS_P1;SDS_P2;PMS_P1;PMS_P2;Temp;Humidity;BMP_temperature;BMP_pressure;BME280_temperature;BME280_humidity;BME280_pressure;Samples;Min_cycle;Max_cycle;Signal;HPM_P1;HPM_P2
2022/07/11 00:00:46;;;;;;;24.80;23.50;;;15.70;76.00;;;;;;4989425;28;20873;-70
2022/07/11 00:03:13;;;;;;;24.53;23.23;;;15.70;75.80;;;;;;4986367;28;20564;-71
2022/07/11 00:05:40;;;;;;;24.67;23.37;;;15.80;75.80;;;;;;4987066;28;20564;-72
2022/07/11 00:08:07;;;;;;;24.70;23.40;;;15.70;75.80;;;;;;4983050;28;20513;-70
2022/07/11 00:10:34;;;;;;;25.43;24.03;;;15.80;75.90;;;;;;4983438;28;20485;-70
2022/07/11 00:13:02;;;;;;;24.90;23.50;;;15.70;76.00;;;;;;4986263;28;21013;-72
2022/07/11 00:15:29;;;;;;;25.40;23.90;;;15.80;76.10;;;;;;4987622;28;20493;-70
2022/07/11 00:17:57;;;;;;;24.80;23.60;;;15.80;75.90;;;;;;4987142;28;20482;-71
2022/07/11 00:20:23;;;;;;;25.27;23.97;;;15.70;76.30;;;;;;4988171;28;20466;-70
2022/07/11 00:22:50;;;;;;;25.00;23.70;;;15.70;76.20;;;;;;4984619;28;20989;-68
2022/07/11 00:25:17;;;;;;;24.93;23.53;;;15.80;76.10;;;;;;4988630;28;20470;-68
2022/07/11 00:27:44;;;;;;;25.13;23.83;;;15.70;76.30;;;;;;4986977;28;20485;-68
2022/07/11 00:30:13;;;;;;;24.20;23.00;;;15.70;76.50;;;;;;4988745;28;21331;-68
2022/07/11 00:32:40;;;;;;;24.20;23.00;;;15.80;76.30;;;;;;4986809;28;20478;-68
2022/07/11 00:35:07;;;;;;;24.40;23.20;;;15.70;76.40;;;;;;4987434;28;21025;-68
2022/07/11 00:37:34;;;;;;;24.93;23.63;;;15.70;76.60;;;;;;4987352;28;20512;-68
2022/07/11 00:40:01;;;;;;;25.20;23.90;;;15.70;76.50;;;;;;4987752;28;20478;-68
2022/07/11 00:42:28;;;;;;;25.20;23.90;;;15.60;76.80;;;;;;4987557;28;20509;-68
2022/07/11 00:44:55;;;;;;;25.27;23.90;;;15.60;77.00;;;;;;4984867;28;20466;-68
2022/07/11 00:47:24;;;;;;;25.27;23.97;;;15.60;77.10;;;;;;4987210;28;20486;-72
2022/07/11 00:49:51;;;;;;;24.40;23.20;;;15.60;77.10;;;;;;4989634;28;20986;-67
2022/07/11 00:52:18;;;;;;;25.77;23.83;;;15.60;77.10;;;;;;4986884;28;20461;-68
2022/07/11 00:54:46;;;;;;;24.53;23.23;;;15.60;77.10;;;;;;4977159;28;20454;-67
2022/07/11 00:57:13;;;;;;;25.73;24.33;;;15.60;77.40;;;;;;4981573;28;20573;-67
2022/07/11 00:59:40;;;;;;;25.33;24.00;;;15.60;77.40;;;;;;4988928;28;20497;-68
2022/07/11 01:02:08;;;;;;;25.40;24.10;;;15.60;77.40;;;;;;4987592;28;20545;-68
2022/07/11 01:04:36;;;;;;;24.90;23.53;;;15.70;77.20;;;;;;4990501;28;20498;-67
2022/07/11 01:07:03;;;;;;;25.37;24.07;;;15.60;77.20;;;;;;4990838;28;20523;-68
2022/07/11 01:09:31;;;;;;;26.00;24.70;;;15.70;77.30;;;;;;4990348;28;20478;-67
2022/07/11 01:11:58;;;;;;;25.50;24.20;;;15.70;77.60;;;;;;4990547;28;20484;-68
2022/07/11 01:14:25;;;;;;;26.63;25.23;;;15.70;77.60;;;;;;4992050;28;20458;-68
2022/07/11 01:16:53;;;;;;;25.67;24.17;;;15.70;77.60;;;;;;4984885;28;20494;-68
2022/07/11 01:19:19;;;;;;;26.63;25.20;;;15.70;77.90;;;;;;4983602;28;21057;-68
2022/07/11 01:21:52;;;;;;;26.57;25.00;;;15.60;77.90;;;;;;4988516;28;20493;-68
2022/07/11 01:24:21;;;;;;;25.97;24.60;;;15.60;77.90;;;;;;4992835;28;20550;-68
2022/07/11 01:26:49;;;;;;;25.80;24.50;;;15.50;78.10;;;;;;4988900;28;20572;-68
2022/07/11 01:29:16;;;;;;;26.60;24.67;;;15.60;78.00;;;;;;4990988;28;20521;-68
2022/07/11 01:31:44;;;;;;;26.33;24.83;;;15.60;78.00;;;;;;4988624;28;21033;-68
2022/07/11 01:34:11;;;;;;;25.67;24.03;;;15.50;78.20;;;;;;4992562;28;20488;-67
2022/07/11 01:36:39;;;;;;;25.17;23.77;;;15.60;78.20;;;;;;4990060;28;21219;-73
2022/07/11 01:39:05;;;;;;;25.60;24.20;;;15.60;78.00;;;;;;4989608;28;20485;-70
2022/07/11 01:41:34;;;;;;;26.60;25.10;;;15.60;78.10;;;;;;4989359;28;21231;-72
2022/07/11 01:44:01;;;;;;;26.20;24.83;;;15.60;78.10;;;;;;4990902;28;20537;-71
2022/07/11 01:46:28;;;;;;;26.83;25.33;;;15.50;78.50;;;;;;4990111;28;20468;-70
2022/07/11 01:48:55;;;;;;;26.80;25.40;;;15.50;78.60;;;;;;4991095;28;20504;-71
2022/07/11 01:51:24;;;;;;;26.50;25.00;;;15.60;78.40;;;;;;4978001;28;20484;-69
2022/07/11 01:53:52;;;;;;;25.60;24.17;;;15.60;78.50;;;;;;4993217;28;21075;-70
2022/07/11 01:56:20;;;;;;;26.37;24.97;;;15.50;78.50;;;;;;4987791;28;20480;-70
2022/07/11 01:58:49;;;;;;;25.30;24.00;;;15.60;78.40;;;;;;4988207;28;21169;-71
2022/07/11 02:01:16;;;;;;;25.67;24.27;;;15.60;78.40;;;;;;4989187;28;20548;-70
2022/07/11 02:03:43;;;;;;;25.23;23.83;;;15.60;78.40;;;;;;4990493;28;20454;-72
2022/07/11 02:06:10;;;;;;;25.33;23.63;;;15.60;78.50;;;;;;4986430;28;20545;-70
2022/07/11 02:08:47;;;;;;;24.80;23.50;;;15.60;78.60;;;;;;4991396;28;20588;-70
2022/07/11 02:11:14;;;;;;;26.60;25.00;;;15.60;78.60;;;;;;4985302;28;20564;-70
2022/07/11 02:13:41;;;;;;;26.27;24.87;;;15.50;79.00;;;;;;4987940;28;20550;-73
2022/07/11 02:16:09;;;;;;;24.60;23.40;;;15.60;78.80;;;;;;4990350;28;20565;-67
2022/07/11 02:18:36;;;;;;;24.63;23.33;;;15.60;78.70;;;;;;4988208;28;20569;-68
2022/07/11 02:21:04;;;;;;;25.00;23.60;;;15.60;78.60;;;;;;4990251;28;20552;-67
2022/07/11 02:23:30;;;;;;;24.27;22.97;;;15.70;78.40;;;;;;4989138;28;20490;-68
2022/07/11 02:25:57;;;;;;;24.70;23.40;;;15.80;78.10;;;;;;4991298;28;20489;-68
2022/07/11 02:28:25;;;;;;;26.50;24.90;;;15.70;78.40;;;;;;4988743;28;20484;-68
2022/07/11 02:30:52;;;;;;;25.40;24.00;;;15.70;78.70;;;;;;4986242;28;20478;-68
2022/07/11 02:33:20;;;;;;;25.03;23.60;;;15.70;78.70;;;;;;4989664;28;20509;-67
2022/07/11 02:35:47;;;;;;;25.50;24.00;;;15.80;78.50;;;;;;4990206;28;20550;-68
2022/07/11 02:38:15;;;;;;;25.20;23.80;;;15.80;78.40;;;;;;4987611;28;20487;-68
2022/07/11 02:40:44;;;;;;;25.27;23.70;;;15.80;78.40;;;;;;4990266;28;20463;-67
2022/07/11 02:43:11;;;;;;;25.20;23.90;;;15.70;78.50;;;;;;4988739;28;20825;-68
2022/07/11 02:45:38;;;;;;;25.13;23.73;;;15.80;78.50;;;;;;4985353;28;20556;-67
2022/07/11 02:48:06;;;;;;;24.90;23.43;;;15.70;78.60;;;;;;4988746;28;20879;-67
2022/07/11 02:50:35;;;;;;;24.90;23.50;;;15.70;78.80;;;;;;4988676;28;20857;-68
2022/07/11 02:53:02;;;;;;;24.77;23.47;;;15.80;78.80;;;;;;4988921;28;20505;-68
2022/07/11 02:55:29;;;;;;;24.93;23.43;;;15.70;78.90;;;;;;4989726;28;20524;-68
2022/07/11 02:57:56;;;;;;;25.10;23.50;;;15.60;79.10;;;;;;4988263;28;20530;-68
2022/07/11 03:00:23;;;;;;;25.70;24.30;;;15.70;79.00;;;;;;4990329;28;20464;-66
2022/07/11 03:02:49;;;;;;;25.60;24.20;;;15.70;79.00;;;;;;4987648;28;20469;-67
2022/07/11 03:05:16;;;;;;;25.20;23.80;;;15.70;79.00;;;;;;4986453;28;20494;-67
2022/07/11 03:07:45;;;;;;;24.00;22.70;;;15.80;78.90;;;;;;4985285;28;20887;-68
2022/07/11 03:10:12;;;;;;;25.43;24.00;;;15.80;79.00;;;;;;4989964;28;20464;-68
2022/07/11 03:12:41;;;;;;;27.77;26.27;;;15.90;78.80;;;;;;4989294;28;20868;-68
2022/07/11 03:15:09;;;;;;;24.70;23.30;;;15.80;78.90;;;;;;4986642;28;21198;-68
2022/07/11 03:17:36;;;;;;;25.63;24.10;;;15.80;79.10;;;;;;4990301;28;20497;-75
2022/07/11 03:20:03;;;;;;;26.40;24.97;;;15.80;79.00;;;;;;4980599;28;20463;-71
2022/07/11 03:22:30;;;;;;;25.33;23.83;;;15.90;78.90;;;;;;4993061;28;20492;-70
2022/07/11 03:25:00;;;;;;;24.90;23.50;;;16.00;78.80;;;;;;4987430;28;20471;-70
2022/07/11 03:27:26;;;;;;;27.37;25.90;;;15.90;79.10;;;;;;4986701;28;20482;-68
2022/07/11 03:29:53;;;;;;;25.50;24.10;;;15.90;79.10;;;;;;4987927;28;20454;-68
2022/07/11 03:32:22;;;;;;;26.57;25.07;;;16.00;78.80;;;;;;4988437;28;20512;-68
2022/07/11 03:37:30;;;;;;;26.20;24.70;;;16.00;78.90;;;;;;4988967;28;20907;-68
2022/07/11 03:39:58;;;;;;;27.43;25.87;;;16.00;78.90;;;;;;4986063;28;20462;-68
2022/07/11 03:42:25;;;;;;;26.53;25.00;;;16.00;78.90;;;;;;4987875;28;20455;-70
2022/07/11 03:44:52;;;;;;;25.90;24.40;;;16.00;78.90;;;;;;4987620;28;20549;-71
2022/07/11 03:47:20;;;;;;;30.13;28.53;;;16.00;79.30;;;;;;4989359;28;20455;-70
2022/07/11 03:49:47;;;;;;;25.53;24.10;;;16.10;79.00;;;;;;4988299;28;20462;-70
2022/07/11 03:52:15;;;;;;;27.57;25.60;;;16.10;78.80;;;;;;4989125;28;20486;-71
2022/07/11 03:54:43;;;;;;;27.10;25.50;;;16.10;78.80;;;;;;4985894;28;20532;-70
2022/07/11 03:57:11;;;;;;;26.97;25.27;;;16.10;78.90;;;;;;4988171;28;20473;-71
2022/07/11 03:59:38;;;;;;;29.03;27.23;;;16.10;79.00;;;;;;4986085;28;20565;-68
2022/07/11 04:02:05;;;;;;;25.90;24.50;;;16.10;79.10;;;;;;4989724;28;20486;-68
2022/07/11 04:04:32;;;;;;;26.10;24.57;;;16.10;79.10;;;;;;4985451;28;20458;-67
2022/07/11 04:06:59;;;;;;;26.07;24.67;;;16.10;79.10;;;;;;4984201;28;20542;-70
2022/07/11 04:09:26;;;;;;;27.30;25.70;;;16.20;79.00;;;;;;4984397;28;20512;-68
2022/07/11 04:11:53;;;;;;;26.70;25.13;;;16.30;78.80;;;;;;4990297;28;20482;-68
2022/07/11 04:14:21;;;;;;;32.20;30.30;;;16.40;78.50;;;;;;4987051;28;20458;-70
2022/07/11 04:16:48;;;;;;;28.33;26.63;;;16.40;78.70;;;;;;4986712;28;20549;-68
2022/07/11 04:19:15;;;;;;;27.07;25.47;;;16.30;78.80;;;;;;4986820;28;20557;-68
2022/07/11 04:21:42;;;;;;;29.17;27.47;;;16.40;78.50;;;;;;4986919;28;20537;-68
2022/07/11 04:24:09;;;;;;;25.83;24.43;;;16.40;78.30;;;;;;4988246;28;20458;-68
2022/07/11 04:26:36;;;;;;;28.90;27.13;;;16.50;78.20;;;;;;4987700;28;20520;-68
2022/07/11 04:29:03;;;;;;;27.00;25.40;;;16.50;78.20;;;;;;4984945;28;20604;-68
2022/07/11 04:31:31;;;;;;;29.37;27.50;;;16.50;78.40;;;;;;4988752;28;20508;-76
2022/07/11 04:33:58;;;;;;;27.63;26.03;;;16.50;78.40;;;;;;4985518;28;20477;-70
2022/07/11 04:36:25;;;;;;;28.40;26.80;;;16.50;78.60;;;;;;4989260;28;20932;-70
2022/07/11 04:38:52;;;;;;;30.27;28.67;;;16.50;78.30;;;;;;4978476;28;20570;-70
2022/07/11 04:41:20;;;;;;;28.83;27.17;;;16.60;78.10;;;;;;4989688;28;20557;-68
2022/07/11 04:43:47;;;;;;;28.43;26.83;;;16.70;78.00;;;;;;4985408;28;20947;-68
2022/07/11 04:46:14;;;;;;;29.37;27.60;;;16.70;78.00;;;;;;4981205;28;20549;-69
2022/07/11 04:48:42;;;;;;;29.20;27.50;;;16.80;78.10;;;;;;4979394;28;20886;-70
2022/07/11 04:51:09;;;;;;;27.13;25.73;;;16.90;77.80;;;;;;4982179;28;20572;-68
2022/07/11 04:53:37;;;;;;;29.43;27.83;;;16.90;77.60;;;;;;4978666;28;20462;-67
2022/07/11 04:56:04;;;;;;;27.57;25.97;;;16.90;77.70;;;;;;4985659;28;20462;-70
2022/07/11 04:58:32;;;;;;;26.73;25.20;;;17.00;77.50;;;;;;4983326;28;20569;-71
2022/07/11 05:00:59;;;;;;;27.70;26.10;;;17.00;77.60;;;;;;4984727;28;20951;-69
2022/07/11 05:03:26;;;;;;;29.93;28.27;;;17.20;77.10;;;;;;4987596;28;20828;-70
2022/07/11 05:05:54;;;;;;;29.07;27.47;;;17.20;76.80;;;;;;4986294;28;20468;-71
2022/07/11 05:08:21;;;;;;;28.10;26.50;;;17.40;76.70;;;;;;4983652;28;21062;-68
2022/07/11 05:10:49;;;;;;;30.70;28.90;;;17.40;76.60;;;;;;4988047;28;20458;-70
2022/07/11 05:13:16;;;;;;;31.43;29.63;;;17.60;76.10;;;;;;4987306;28;20477;-69
2022/07/11 05:15:44;;;;;;;27.63;26.03;;;17.80;75.50;;;;;;4987099;28;20462;-69
2022/07/11 05:18:11;;;;;;;30.80;29.20;;;17.90;75.50;;;;;;4984411;28;20834;-67
2022/07/11 05:20:38;;;;;;;29.20;27.60;;;18.00;75.60;;;;;;4987086;28;20466;-71
2022/07/11 05:23:06;;;;;;;36.13;34.23;;;18.20;75.20;;;;;;4986191;28;20458;-69
2022/07/11 05:25:34;;;;;;;28.87;27.27;;;18.40;75.00;;;;;;4985803;28;20516;-71
2022/07/11 05:28:01;;;;;;;30.43;28.57;;;18.60;74.40;;;;;;4988431;28;20558;-71
2022/07/11 05:30:27;;;;;;;28.20;26.50;;;18.90;73.70;;;;;;4981059;28;20497;-71
2022/07/11 05:32:54;;;;;;;32.10;30.30;;;19.00;73.00;;;;;;4985563;28;20299;-72
2022/07/11 05:35:21;;;;;;;32.93;31.10;;;19.00;72.20;;;;;;4989211;28;20472;-71
2022/07/11 05:37:48;;;;;;;30.10;28.30;;;18.90;72.60;;;;;;4986743;28;20493;-73
2022/07/11 05:40:17;;;;;;;29.47;27.60;;;18.90;72.80;;;;;;4986232;28;20466;-70
2022/07/11 05:42:44;;;;;;;29.30;27.70;;;19.00;72.60;;;;;;4985452;28;20974;-71
2022/07/11 05:45:11;;;;;;;30.40;28.60;;;19.10;72.40;;;;;;4983421;28;20477;-68
2022/07/11 05:47:38;;;;;;;31.03;29.23;;;19.00;72.60;;;;;;4989171;28;20570;-68
2022/07/11 05:50:06;;;;;;;33.43;31.73;;;19.00;73.10;;;;;;4987001;28;20494;-70
2022/07/11 05:52:33;;;;;;;32.50;30.60;;;19.20;72.10;;;;;;4987820;28;20482;-68
2022/07/11 05:55:00;;;;;;;31.47;29.57;;;19.10;72.30;;;;;;4986411;28;20498;-68
2022/07/11 05:57:29;;;;;;;29.77;28.03;;;19.20;72.00;;;;;;4988404;28;20552;-69
2022/07/11 05:59:56;;;;;;;30.37;28.57;;;19.20;71.60;;;;;;4990769;28;21033;-70
2022/07/11 06:02:23;;;;;;;30.57;28.67;;;19.30;71.10;;;;;;4992499;28;20472;-71
2022/07/11 06:04:49;;;;;;;31.43;29.20;;;19.40;70.90;;;;;;4992035;28;20466;-70
2022/07/11 06:08:40;;;;;;;30.00;28.30;;;19.40;70.70;;;;;;4982787;28;20468;-70
2022/07/11 06:10:05;;;;;;;29.70;28.00;;;19.40;70.70;;;;;;4990061;28;20492;-72
2022/07/11 06:12:33;;;;;;;29.40;27.70;;;19.60;70.90;;;;;;4990173;28;20499;-72
2022/07/11 06:15:00;;;;;;;31.57;29.70;;;19.80;70.50;;;;;;4989828;28;20542;-71
2022/07/11 06:17:27;;;;;;;31.20;29.50;;;20.00;70.10;;;;;;4992097;28;20958;-71
2022/07/11 06:19:55;;;;;;;28.90;27.40;;;20.10;68.80;;;;;;4991566;28;20926;-70
2022/07/11 06:22:22;;;;;;;32.20;30.20;;;20.10;68.80;;;;;;4991082;28;22454;-70
2022/07/11 06:24:49;;;;;;;29.60;28.00;;;20.20;68.60;;;;;;4989547;28;20505;-72
2022/07/11 06:27:16;;;;;;;30.47;28.67;;;20.30;68.40;;;;;;4990899;28;20509;-71
2022/07/11 06:29:44;;;;;;;30.30;28.60;;;20.20;68.60;;;;;;4986784;28;20488;-71
2022/07/11 06:32:11;;;;;;;31.07;29.27;;;20.10;68.70;;;;;;4990549;28;20568;-70
2022/07/11 06:34:38;;;;;;;28.53;26.93;;;20.20;68.70;;;;;;4986358;28;20508;-69
2022/07/11 06:37:05;;;;;;;32.43;30.13;;;20.20;69.00;;;;;;4991794;28;20652;-69
2022/07/11 06:39:32;;;;;;;32.07;30.17;;;20.40;68.70;;;;;;4990218;28;20492;-69
2022/07/11 06:41:59;;;;;;;28.13;26.53;;;20.60;68.00;;;;;;4990122;28;20553;-69
2022/07/11 06:44:26;;;;;;;30.77;29.07;;;20.70;67.10;;;;;;4986760;28;20559;-69
2022/07/11 06:46:54;;;;;;;30.23;28.43;;;20.60;67.70;;;;;;4976109;28;20465;-69
2022/07/11 06:49:21;;;;;;;31.60;29.90;;;20.60;67.70;;;;;;4989932;28;20496;-69
2022/07/11 06:51:48;;;;;;;29.60;27.90;;;20.70;67.20;;;;;;4990445;28;20470;-69
2022/07/11 06:54:15;;;;;;;29.90;27.90;;;20.60;67.40;;;;;;4988354;28;20506;-69
2022/07/11 06:56:42;;;;;;;29.10;27.60;;;20.90;67.40;;;;;;4991293;28;21024;-69
2022/07/11 06:59:09;;;;;;;31.60;29.80;;;21.10;67.10;;;;;;4986806;28;20501;-69
2022/07/11 07:01:37;;;;;;;32.93;31.03;;;21.40;66.20;;;;;;4989747;28;20559;-70
2022/07/11 07:04:05;;;;;;;29.43;27.73;;;21.70;64.90;;;;;;4989578;28;20470;-69
2022/07/11 07:06:32;;;;;;;30.00;28.20;;;21.70;64.70;;;;;;4976700;28;20581;-69
2022/07/11 07:09:01;;;;;;;29.80;27.87;;;21.80;64.70;;;;;;4989113;28;20483;-69
2022/07/11 07:11:28;;;;;;;31.10;29.27;;;21.80;63.90;;;;;;4988319;28;20460;-69
2022/07/11 07:13:55;;;;;;;30.43;28.73;;;21.60;64.40;;;;;;4981475;28;20479;-70
2022/07/11 07:16:22;;;;;;;30.50;28.70;;;21.50;64.50;;;;;;4987049;28;20487;-70
2022/07/11 07:18:52;;;;;;;29.63;27.93;;;21.40;65.20;;;;;;4986808;28;20485;-70
2022/07/11 07:21:21;;;;;;;29.50;27.90;;;21.70;64.70;;;;;;4989206;28;20462;-70
2022/07/11 07:23:48;;;;;;;30.33;28.53;;;21.80;64.70;;;;;;4983395;28;20462;-70
2022/07/11 07:26:15;;;;;;;33.03;31.23;;;22.00;63.40;;;;;;4985755;28;20495;-70
2022/07/11 07:28:42;;;;;;;31.67;29.67;;;22.00;63.50;;;;;;4987038;28;20481;-71
2022/07/11 07:31:11;;;;;;;29.00;27.40;;;22.10;64.10;;;;;;4989390;28;20553;-70
2022/07/11 07:33:41;;;;;;;31.07;29.37;;;22.50;63.50;;;;;;4987869;28;20484;-70
2022/07/11 07:36:08;;;;;;;29.50;27.80;;;22.80;62.90;;;;;;4989555;28;20474;-70
2022/07/11 07:38:36;;;;;;;29.90;28.10;;;23.10;61.90;;;;;;4980138;28;20505;-70
2022/07/11 07:41:03;;;;;;;32.20;30.40;;;23.50;60.90;;;;;;4989969;28;20470;-70
2022/07/11 07:43:30;;;;;;;31.90;29.90;;;23.80;60.20;;;;;;4985952;28;20517;-70
2022/07/11 07:45:57;;;;;;;29.10;27.50;;;23.90;58.70;;;;;;4988542;28;20493;-70
2022/07/11 07:48:24;;;;;;;29.60;28.00;;;24.00;57.70;;;;;;4984608;28;20474;-71
2022/07/11 07:50:51;;;;;;;32.93;31.00;;;23.90;58.30;;;;;;4989797;28;20458;-70
2022/07/11 07:53:18;;;;;;;33.23;31.43;;;23.90;58.80;;;;;;4987500;28;20480;-71
2022/07/11 07:55:46;;;;;;;31.80;30.00;;;24.10;58.70;;;;;;4985961;28;21023;-70
2022/07/11 07:58:13;;;;;;;30.50;28.80;;;24.40;57.80;;;;;;4987823;28;20509;-71
2022/07/11 08:03:25;;;;;;;33.43;31.90;;;24.60;56.90;;;;;;4984788;28;20961;-70
2022/07/11 08:05:52;;;;;;;29.20;27.50;;;24.40;56.90;;;;;;4977633;28;20472;-70
2022/07/11 08:08:19;;;;;;;30.70;28.70;;;24.60;56.80;;;;;;4983316;28;20485;-71
2022/07/11 08:10:47;;;;;;;29.40;27.60;;;24.70;55.90;;;;;;4978732;28;20468;-70
2022/07/11 08:13:14;;;;;;;32.40;30.60;;;24.60;56.00;;;;;;4984734;28;20543;-71
2022/07/11 08:15:41;;;;;;;33.10;31.20;;;24.60;56.20;;;;;;4989041;28;20550;-71
2022/07/11 08:18:08;;;;;;;28.50;26.80;;;24.40;56.00;;;;;;4985297;28;20492;-71
2022/07/11 08:20:35;;;;;;;32.50;30.70;;;24.40;56.30;;;;;;4979362;28;20464;-71
2022/07/11 08:23:03;;;;;;;30.10;28.20;;;24.50;56.50;;;;;;4986010;28;20453;-70
2022/07/11 08:25:30;;;;;;;31.40;29.70;;;24.70;56.10;;;;;;4979025;28;20885;-71
2022/07/11 08:27:59;;;;;;;29.57;27.93;;;24.60;54.80;;;;;;4987913;28;20519;-70
2022/07/11 08:30:26;;;;;;;29.87;27.97;;;24.10;55.60;;;;;;4978099;28;20905;-71
2022/07/11 08:32:53;;;;;;;31.47;29.23;;;23.50;57.10;;;;;;4984672;28;20587;-70
2022/07/11 08:35:20;;;;;;;31.20;29.40;;;23.30;57.20;;;;;;4989384;28;20554;-70
2022/07/11 08:37:47;;;;;;;30.37;28.67;;;23.40;57.10;;;;;;4988254;28;20576;-70
2022/07/11 08:40:14;;;;;;;30.47;28.77;;;23.40;56.90;;;;;;4981566;28;20461;-72
2022/07/11 08:42:42;;;;;;;30.57;28.87;;;23.40;57.00;;;;;;4988712;28;20454;-71
2022/07/11 08:45:13;;;;;;;29.90;28.10;;;23.30;57.30;;;;;;4987488;28;20469;-72
2022/07/11 08:47:40;;;;;;;28.73;27.23;;;23.50;57.00;;;;;;4988446;28;20477;-74
2022/07/11 08:50:09;;;;;;;32.73;29.47;;;23.70;57.20;;;;;;4986899;28;20545;-73
2022/07/11 08:52:39;;;;;;;28.70;27.00;;;24.10;56.00;;;;;;4987718;28;20905;-73
2022/07/11 08:55:07;;;;;;;31.70;29.97;;;24.50;53.60;;;;;;4975949;28;20458;-71
2022/07/11 08:57:35;;;;;;;29.50;27.90;;;24.50;52.90;;;;;;4987429;28;20471;-71
2022/07/11 09:00:05;;;;;;;31.37;29.40;;;24.40;53.60;;;;;;4977263;28;20458;-71
2022/07/11 09:02:34;;;;;;;28.43;26.60;;;24.30;53.10;;;;;;4987855;28;20466;-71
2022/07/11 09:05:02;;;;;;;30.60;28.90;;;24.30;53.30;;;;;;4976310;28;20975;-71
2022/07/11 09:07:30;;;;;;;30.90;29.10;;;24.30;53.60;;;;;;4985774;28;20488;-71
2022/07/11 09:09:57;;;;;;;29.37;27.77;;;24.50;53.30;;;;;;4986546;28;22355;-71
2022/07/11 09:12:24;;;;;;;28.13;26.50;;;24.70;53.10;;;;;;4988547;28;20499;-71
2022/07/11 09:14:52;;;;;;;29.33;27.63;;;24.90;53.00;;;;;;4986808;28;20501;-71
2022/07/11 09:17:25;;;;;;;31.87;30.07;;;25.00;52.00;;;;;;4988541;28;20470;-71
2022/07/11 09:19:54;;;;;;;31.27;29.13;;;25.10;51.90;;;;;;4983728;28;20517;-71
2022/07/11 09:25:31;;;;;;;30.40;28.70;;;25.40;50.90;;;;;;4980668;28;20631;-71
2022/07/11 09:28:03;;;;;;;29.77;27.97;;;25.50;50.90;;;;;;4991892;28;20545;-71
2022/07/11 09:30:32;;;;;;;29.53;27.87;;;25.80;50.50;;;;;;4988405;28;20466;-71
2022/07/11 09:33:00;;;;;;;27.63;25.93;;;25.80;49.40;;;;;;4990867;28;20604;-71
2022/07/11 09:35:31;;;;;;;32.67;31.03;;;25.80;49.40;;;;;;4988577;28;20500;-71
2022/07/11 09:37:59;;;;;;;28.90;27.33;;;25.40;50.30;;;;;;4987818;28;21008;-72
2022/07/11 09:40:26;;;;;;;29.60;28.00;;;24.60;52.30;;;;;;4980827;28;20491;-71
2022/07/11 09:42:55;;;;;;;30.50;28.80;;;24.80;52.90;;;;;;4992010;28;20463;-71
2022/07/11 09:45:24;;;;;;;28.67;26.97;;;24.70;52.80;;;;;;4990145;28;21041;-71
2022/07/11 09:47:52;;;;;;;29.93;28.23;;;24.70;54.00;;;;;;4988379;28;20533;-71
2022/07/11 09:50:20;;;;;;;31.13;29.33;;;24.80;52.80;;;;;;4991517;28;20923;-71
2022/07/11 09:53:03;;;;;;;28.73;27.13;;;24.60;53.30;;;;;;4991157;28;20511;-74
2022/07/11 09:55:30;;;;;;;31.13;29.33;;;24.30;53.90;;;;;;4984186;28;20464;-71
2022/07/11 09:57:57;;;;;;;28.20;26.60;;;24.20;54.20;;;;;;4988765;28;21034;-71
2022/07/11 10:00:25;;;;;;;31.67;30.00;;;23.90;55.20;;;;;;4982643;28;20493;-71
2022/07/11 10:02:54;;;;;;;29.23;27.63;;;23.90;55.50;;;;;;4991227;28;20490;-71
2022/07/11 10:05:22;;;;;;;30.57;28.87;;;23.80;55.40;;;;;;4980472;28;20863;-71
2022/07/11 10:07:49;;;;;;;28.80;27.10;;;23.70;55.60;;;;;;4987331;28;20478;-71
2022/07/11 10:10:18;;;;;;;28.50;26.90;;;23.90;55.00;;;;;;4980877;28;20971;-71
2022/07/11 10:12:46;;;;;;;29.57;27.97;;;24.00;54.40;;;;;;4990768;28;20458;-71
2022/07/11 10:15:16;;;;;;;28.10;26.60;;;24.20;54.00;;;;;;4989343;28;20883;-75
2022/07/11 10:17:53;;;;;;;32.20;29.93;;;24.50;52.90;;;;;;4989169;28;20511;-71
2022/07/11 10:20:27;;;;;;;28.20;26.50;;;24.00;53.70;;;;;;4991024;28;20445;-69
2022/07/11 10:23:00;;;;;;;29.57;27.90;;;23.70;54.30;;;;;;4989455;28;20481;-69
2022/07/11 10:25:34;;;;;;;28.73;27.13;;;24.10;54.10;;;;;;4979202;28;20553;-71
2022/07/11 10:28:14;;;;;;;28.70;27.10;;;24.50;52.70;;;;;;4991517;28;20469;-70
2022/07/11 10:30:44;;;;;;;28.40;26.80;;;24.90;52.50;;;;;;4991159;28;20872;-70
2022/07/11 10:33:10;;;;;;;29.90;28.30;;;25.20;50.90;;;;;;4984430;28;20513;-70
2022/07/11 10:35:41;;;;;;;27.83;26.27;;;25.30;50.60;;;;;;4988467;28;20521;-70
2022/07/11 10:38:08;;;;;;;27.50;26.00;;;25.50;50.60;;;;;;4987291;28;20578;-70
2022/07/11 10:40:47;;;;;;;30.70;28.90;;;25.40;50.90;;;;;;4990714;28;20463;-71
2022/07/11 10:43:34;;;;;;;30.10;28.33;;;25.60;50.60;;;;;;4988019;28;20460;-69
2022/07/11 10:46:03;;;;;;;29.37;27.57;;;25.70;49.90;;;;;;4988003;28;20540;-69
2022/07/11 10:48:32;;;;;;;30.50;28.70;;;25.90;50.10;;;;;;4986579;28;20981;-69
2022/07/11 10:51:14;;;;;;;27.83;26.23;;;26.20;49.90;;;;;;4991411;28;20496;-69
2022/07/11 10:53:47;;;;;;;30.27;28.63;;;26.40;49.40;;;;;;4984131;28;20565;-69
2022/07/11 10:56:28;;;;;;;29.00;27.40;;;26.40;49.10;;;;;;4988525;28;21000;-69
2022/07/11 10:59:05;;;;;;;32.77;30.80;;;26.70;49.20;;;;;;4984230;28;20477;-71
2022/07/11 11:01:33;;;;;;;28.40;26.80;;;27.00;48.70;;;;;;4988993;28;20512;-71
2022/07/11 11:04:33;;;;;;;28.33;26.63;;;27.20;47.90;;;;;;4988824;28;20568;-71
2022/07/11 11:07:00;;;;;;;31.80;30.10;;;27.40;48.40;;;;;;4986878;28;20545;-71
2022/07/11 11:09:38;;;;;;;30.27;28.23;;;27.40;47.40;;;;;;4990065;28;20573;-72
2022/07/11 11:12:06;;;;;;;27.10;25.60;;;27.60;47.70;;;;;;4991195;28;20458;-70
2022/07/11 11:14:33;;;;;;;27.50;25.90;;;27.30;47.50;;;;;;4990033;28;20936;-73
2022/07/11 11:17:33;;;;;;;30.37;28.57;;;27.40;47.00;;;;;;4990322;28;20541;-75
2022/07/11 11:20:02;;;;;;;29.00;27.40;;;27.40;46.30;;;;;;4989368;28;20470;-72
2022/07/11 11:22:29;;;;;;;27.70;26.10;;;26.70;47.40;;;;;;4990661;28;20997;-70
2022/07/11 11:24:57;;;;;;;31.03;29.43;;;26.10;48.50;;;;;;4990418;28;20549;-72
2022/07/11 11:27:27;;;;;;;28.20;26.50;;;26.10;49.00;;;;;;4984364;28;20468;-73
2022/07/11 11:29:57;;;;;;;31.20;29.30;;;26.50;49.00;;;;;;4986708;28;20557;-76
2022/07/11 11:32:30;;;;;;;28.20;26.67;;;26.60;48.80;;;;;;4990272;28;20524;-72
2022/07/11 11:34:58;;;;;;;29.30;27.33;;;26.90;48.50;;;;;;4989531;28;20564;-78
2022/07/11 11:37:26;;;;;;;30.90;28.80;;;27.00;48.60;;;;;;4984907;28;20462;-73
2022/07/11 11:39:58;;;;;;;29.13;27.43;;;27.00;48.40;;;;;;4988981;28;20916;-73
2022/07/11 11:42:29;;;;;;;28.37;26.77;;;26.80;48.10;;;;;;4985738;28;20460;-70
2022/07/11 11:44:58;;;;;;;31.23;29.40;;;26.70;48.20;;;;;;4990151;28;20565;-69
2022/07/11 11:47:26;;;;;;;31.60;29.80;;;26.30;48.90;;;;;;4989438;28;20489;-71
2022/07/11 11:49:53;;;;;;;29.80;28.10;;;25.90;49.70;;;;;;4979926;28;20493;-71
2022/07/11 11:52:21;;;;;;;29.03;27.33;;;25.50;50.80;;;;;;4983119;28;20461;-72
2022/07/11 11:54:53;;;;;;;28.77;27.17;;;25.50;51.40;;;;;;4989303;28;20479;-69
2022/07/11 11:57:23;;;;;;;30.83;29.03;;;25.70;51.20;;;;;;4990863;28;20485;-71
2022/07/11 11:59:52;;;;;;;28.90;27.27;;;26.20;50.20;;;;;;4986297;28;20462;-71
2022/07/11 12:02:23;;;;;;;30.47;28.60;;;26.60;49.50;;;;;;4984452;28;20502;-72
2022/07/11 12:04:50;;;;;;;31.70;29.80;;;26.70;48.60;;;;;;4988148;28;20524;-70
2022/07/11 12:07:24;;;;;;;31.70;29.90;;;26.50;49.30;;;;;;4986507;28;20861;-72
2022/07/11 12:09:55;;;;;;;30.37;28.57;;;26.50;49.60;;;;;;4986663;28;20549;-69
2022/07/11 12:15:31;;;;;;;30.57;28.63;;;26.70;49.70;;;;;;4987831;28;20521;-70
2022/07/11 12:18:04;;;;;;;30.80;29.00;;;26.90;49.30;;;;;;4988927;28;21035;-70
2022/07/11 12:20:40;;;;;;;31.00;29.30;;;27.10;48.40;;;;;;4979928;28;20469;-70
2022/07/11 12:23:09;;;;;;;30.90;29.13;;;27.00;47.90;;;;;;4988232;28;20496;-70
2022/07/11 12:25:36;;;;;;;31.33;29.53;;;27.00;48.70;;;;;;4990019;28;20533;-77
2022/07/11 12:28:03;;;;;;;29.00;27.40;;;27.00;48.20;;;;;;4988239;28;20881;-74
2022/07/11 12:30:32;;;;;;;28.57;26.87;;;26.60;48.30;;;;;;4988146;28;20564;-72
2022/07/11 12:33:10;;;;;;;28.00;26.30;;;26.40;48.80;;;;;;4987613;28;20466;-76
2022/07/11 12:35:37;;;;;;;28.27;26.67;;;26.70;48.70;;;;;;4989045;28;20560;-72
2022/07/11 12:38:05;;;;;;;27.70;26.17;;;26.80;48.80;;;;;;4987672;28;20612;-71
2022/07/11 12:40:32;;;;;;;29.23;27.43;;;26.50;49.60;;;;;;4988684;28;20462;-71
2022/07/11 12:42:59;;;;;;;28.17;26.47;;;26.40;50.30;;;;;;5009174;23;20587;-73
2022/07/11 12:45:25;;;;;;;31.13;29.50;;;26.70;49.90;;;;;;5008059;28;20508;-71